Flight Track Log - Related Links

Times and Time Zones

All times are in EDT time to prevent confusion due to time zone crossing. See the AFR6719 flight status page for this flight to view local times or setup timezone preferences in your user account.

Time Position Orientation Groundspeed Altitude Reporting Facility
EDT Latitude Longitude Course Direction KTS MPH feet Rate Location/Type
Sun 03:16:00 AM 19.5616 -99.0114 25° Northeast  Level FlightAware Approximate
Sun 03:17:00 AM 19.6869 -98.9506 25° Northeast  Level FlightAware Approximate
Sun 03:18:00 AM 19.8121 -98.8897 25° Northeast  Level FlightAware Approximate
Sun 03:19:00 AM 19.9373 -98.8287 25° Northeast  Level FlightAware Approximate
Sun 03:20:00 AM 20.0626 -98.7676 25° Northeast  Level FlightAware Approximate
Sun 03:21:00 AM 20.1877 -98.7064 25° Northeast  Level FlightAware Approximate
Sun 03:22:00 AM 20.3129 -98.6451 25° Northeast  Level FlightAware Approximate
Sun 03:23:00 AM 20.4381 -98.5837 25° Northeast  Level FlightAware Approximate
Sun 03:24:00 AM 20.5508 -98.5283 25° Northeast  Level FlightAware Approximate
Sun 03:25:00 AM 20.6636 -98.4728 25° Northeast  Level FlightAware Approximate
Sun 03:26:00 AM 20.7763 -98.4173 25° Northeast  Level FlightAware Approximate
Sun 03:27:00 AM 20.8890 -98.3616 25° Northeast  Level FlightAware Approximate
Sun 03:28:00 AM 21.0017 -98.3059 25° Northeast  Level FlightAware Approximate
Sun 03:29:00 AM 21.1144 -98.2500 25° Northeast  Level FlightAware Approximate
Sun 03:30:00 AM 21.2271 -98.1941 25° Northeast  Level FlightAware Approximate
Sun 03:31:00 AM 21.3397 -98.1381 25° Northeast  Level FlightAware Approximate
Sun 03:32:00 AM 21.4523 -98.0820 25° Northeast  Level FlightAware Approximate
Sun 03:33:00 AM 21.5506 -98.0330 25° Northeast  Level FlightAware Approximate
Sun 03:34:00 AM 21.6634 -97.9773 25° Northeast  Level FlightAware Approximate
Sun 03:35:00 AM 21.7762 -97.9214 25° Northeast  Level FlightAware Approximate
Sun 03:36:00 AM 21.8890 -97.8655 25° Northeast  Level FlightAware Approximate
Sun 03:37:00 AM 22.0017 -97.8095 25° Northeast  Level FlightAware Approximate
Sun 03:38:00 AM 22.1144 -97.7533 25° Northeast  Level FlightAware Approximate
Sun 03:39:00 AM 22.2271 -97.6972 25° Northeast  Level FlightAware Approximate
Sun 03:40:00 AM 22.3398 -97.6409 25° Northeast  Level FlightAware Approximate
Sun 03:41:00 AM 22.4525 -97.5845 25° Northeast  Level FlightAware Approximate
Sun 03:42:00 AM 22.5651 -97.5280 25° Northeast  Level FlightAware Approximate
Sun 03:43:00 AM 22.6777 -97.4714 25° Northeast  Level FlightAware Approximate
Sun 03:44:00 AM 22.7903 -97.4148 25° Northeast  Level FlightAware Approximate
Sun 03:45:00 AM 22.9029 -97.3580 25° Northeast  Level FlightAware Approximate
Sun 03:46:00 AM 23.0155 -97.3012 25° Northeast  Level FlightAware Approximate
Sun 03:47:00 AM 23.1281 -97.2443 25° Northeast  Level FlightAware Approximate
Sun 03:48:00 AM 23.2409 -97.1879 25° Northeast  Level FlightAware Approximate
Sun 03:49:00 AM 23.3487 -97.1214 32° Northeast  Level FlightAware Approximate
Sun 03:50:00 AM 23.4534 -97.0488 32° Northeast  Level FlightAware Approximate
Sun 03:51:00 AM 23.5581 -96.9761 32° Northeast  Level FlightAware Approximate
Sun 03:52:00 AM 23.6628 -96.9033 33° Northeast  Level FlightAware Approximate
Sun 03:53:00 AM 23.7674 -96.8303 33° Northeast  Level FlightAware Approximate
Sun 03:54:00 AM 23.8720 -96.7572 33° Northeast  Level FlightAware Approximate
Sun 03:55:00 AM 23.9766 -96.6841 33° Northeast  Level FlightAware Approximate
Sun 03:56:00 AM 24.0811 -96.6107 33° Northeast  Level FlightAware Approximate
Sun 03:57:00 AM 24.1856 -96.5373 33° Northeast  Level FlightAware Approximate
Sun 03:58:00 AM 24.2901 -96.4638 33° Northeast  Level FlightAware Approximate
Sun 03:59:00 AM 24.3945 -96.3901 33° Northeast  Level FlightAware Approximate
Sun 03:59:37 AM 24.2670 -96.3350 33° Northeast 525 604 39,000  Level FlightAware ADS-B
Sun 04:00:00 AM 24.4989 -96.3163 33° Northeast  Level FlightAware Approximate
Sun 04:00:17 AM 24.3520 -96.2840 29° Northeast 524 603 39,000  Level FlightAware ADS-B
Sun 04:00:57 AM 24.4390 -96.2330 28° Northeast 523 602 39,000  Level FlightAware ADS-B
Sun 04:01:42 AM 24.5320 -96.1780 28° Northeast 523 602 39,000  Level FlightAware ADS-B
Sun 04:02:22 AM 24.6210 -96.1250 28° Northeast 523 602 39,000  Level FlightAware ADS-B
Sun 04:03:07 AM 24.7140 -96.0690 29° Northeast 523 602 39,000  Level FlightAware ADS-B
Sun 04:03:42 AM 24.7830 -96.0280 28° Northeast 524 603 39,000  Level FlightAware ADS-B
Sun 04:04:27 AM 24.8840 -95.9680 28° Northeast 523 602 39,000  Level FlightAware ADS-B
Sun 04:05:12 AM 24.9780 -95.9120 28° Northeast 522 601 39,000  Level FlightAware ADS-B
Sun 04:05:47 AM 25.0490 -95.8700 28° Northeast 523 602 39,000  Level FlightAware ADS-B
Sun 04:06:37 AM 25.1600 -95.8020 29° Northeast 524 603 39,000  Level FlightAware ADS-B
Sun 04:07:17 AM 25.2470 -95.7500 28° Northeast 523 602 39,000  Level FlightAware ADS-B
Sun 04:07:57 AM 25.3330 -95.6980 29° Northeast 523 602 39,000  Level FlightAware ADS-B
Sun 04:08:42 AM 25.4260 -95.6420 29° Northeast 523 602 39,000  Level FlightAware ADS-B
Sun 04:09:22 AM 25.5130 -95.5890 29° Northeast 523 602 39,000  Level FlightAware ADS-B
Sun 04:10:07 AM 25.6050 -95.5320 29° Northeast 529 609 39,000  Level FlightAware ADS-B
Sun 04:10:47 AM 25.6840 -95.4620 39° Northeast 541 623 39,000  Level FlightAware ADS-B
Sun 04:11:32 AM 25.7650 -95.3730 45° Northeast 543 625 39,000  Level FlightAware ADS-B
Sun 04:12:12 AM 25.8360 -95.2930 45° Northeast 543 625 39,000  Level FlightAware ADS-B
Sun 04:12:52 AM 25.9040 -95.2110 47° Northeast 542 624 39,000  Level FlightAware ADS-B
Sun 04:13:37 AM 25.9730 -95.1260 48° Northeast 542 624 39,000  Level FlightAware ADS-B
Sun 04:14:17 AM 26.0310 -95.0550 48° Northeast 542 624 39,000  Level FlightAware ADS-B
Sun 04:14:57 AM 26.0880 -94.9850 48° Northeast 542 624 39,000  Level FlightAware ADS-B
Sun 04:15:37 AM 26.1450 -94.9140 48° Northeast 542 624 39,000  Level FlightAware ADS-B
Sun 04:16:01 AM 26.2193 -94.8105 51° Northeast 544 626 39,000  Level FlightAware ADS-B
Sun 04:17:10 AM 26.3335 -94.6636 49° Northeast 547 629 39,000  Level FlightAware ADS-B
Sun 04:17:41 AM 26.3847 -94.5976 49° Northeast 546 628 39,000  Level FlightAware ADS-B
Sun 04:18:13 AM 26.4384 -94.5285 49° Northeast 545 627 39,000  Level FlightAware ADS-B
Sun 04:19:04 AM 26.5218 -94.4210 49° Northeast 545 627 39,000  Level FlightAware ADS-B
Sun 04:19:41 AM 26.5832 -94.3414 49° Northeast 544 626 39,000  Level FlightAware ADS-B
Sun 04:20:12 AM 26.6339 -94.2758 49° Northeast 543 625 39,000  Level FlightAware ADS-B
Sun 04:20:43 AM 26.6842 -94.2106 49° Northeast 543 625 39,000  Level FlightAware ADS-B
Sun 04:21:27 AM 26.7556 -94.1177 49° Northeast 543 625 39,000  Level FlightAware ADS-B
Sun 04:21:57 AM 26.8063 -94.0518 49° Northeast 542 624 39,000  Level FlightAware ADS-B
Sun 04:22:28 AM 26.8565 -93.9862 49° Northeast 542 624 39,000  Level FlightAware ADS-B
Sun 04:22:58 AM 26.9055 -93.9222 49° Northeast 542 624 39,000  Level FlightAware ADS-B
Sun 04:23:31 AM 26.9583 -93.8532 49° Northeast 542 624 39,000  Level FlightAware ADS-B
Sun 04:24:13 AM 27.0272 -93.7630 49° Northeast 543 625 39,000  Level FlightAware ADS-B
Sun 04:24:43 AM 27.0771 -93.6976 49° Northeast 544 626 39,000  Level FlightAware ADS-B
Sun 04:25:14 AM 27.1268 -93.6323 49° Northeast 544 626 39,000  Level FlightAware ADS-B
Sun 04:25:46 AM 27.1787 -93.5638 50° Northeast 545 627 39,000  Level FlightAware ADS-B
Sun 04:26:16 AM 27.2285 -93.4981 50° Northeast 545 627 39,000  Level FlightAware ADS-B
Sun 04:27:17 AM 27.3282 -93.3665 50° Northeast 546 628 39,000  Level FlightAware ADS-B
Sun 04:27:49 AM 27.3804 -93.2973 50° Northeast 546 628 39,000  Level FlightAware ADS-B
Sun 04:28:53 AM 27.4845 -93.1591 50° Northeast 546 628 39,000  Level FlightAware ADS-B
Sun 04:29:38 AM 27.5577 -93.0616 50° Northeast 546 628 39,000  Level FlightAware ADS-B
Sun 04:30:11 AM 27.6118 -92.9895 50° Northeast 545 627 39,000  Level FlightAware ADS-B
Sun 04:31:51 AM 27.7739 -92.7726 50° Northeast 548 631 39,000  Level FlightAware ADS-B
Sun 04:32:22 AM 27.8248 -92.7042 50° Northeast 549 632 39,000  Level FlightAware ADS-B
Sun 04:33:03 AM 27.8736 -92.6375 50° Northeast 546 628 39,000  Level Houston Center
Sun 04:34:03 AM 27.9725 -92.5053 50° Northeast 549 632 39,000  Level Houston Center
Sun 04:39:56 AM 28.5600 -91.7043 50° Northeast 540 621 39,000  Level FlightAware ADS-B
Sun 04:41:04 AM 28.6508 -91.5767 50° Northeast 540 621 39,000  Level Houston Center
Sun 04:42:05 AM 28.7450 -91.4444 51° Northeast 540 621 39,000  Level Houston Center
Sun 04:43:05 AM 28.8414 -91.3142 50° Northeast 539 620 39,000  Level Houston Center
Sun 04:44:05 AM 28.9350 -91.1833 51° Northeast 534 615 39,000  Level Houston Center
Sun 04:45:05 AM 29.0303 -91.0503 51° Northeast 539 620 39,000  Level Houston Center
Sun 04:51:12 AM 29.6210 -90.2170 51° Northeast 544 626 39,000  Level FlightAware ADS-B
Sun 04:51:52 AM 29.6890 -90.1210 51° Northeast 544 626 39,000  Level FlightAware ADS-B
Sun 04:52:37 AM 29.7600 -90.0190 51° Northeast 545 627 39,000  Level FlightAware ADS-B
Sun 04:53:12 AM 29.8120 -89.9430 52° Northeast 544 626 39,000  Level FlightAware ADS-B
Sun 04:54:02 AM 29.8950 -89.8250 51° Northeast 542 624 39,000  Level FlightAware ADS-B
Sun 04:54:42 AM 29.9550 -89.7380 51° Northeast 540 621 39,000  Level FlightAware ADS-B
Sun 04:55:27 AM 30.0210 -89.6430 51° Northeast 539 620 39,000  Level FlightAware ADS-B
Sun 04:56:02 AM 30.0740 -89.5670 51° Northeast 538 619 39,000  Level FlightAware ADS-B
Sun 04:56:47 AM 30.1510 -89.4550 51° Northeast 539 620 39,000  Level FlightAware ADS-B
Sun 04:57:27 AM 30.2050 -89.3750 52° Northeast 539 620 39,000  Level FlightAware ADS-B
Sun 04:58:12 AM 30.2690 -89.2840 51° Northeast 539 620 39,000  Level FlightAware ADS-B
Sun 04:58:52 AM 30.3230 -89.2080 51° Northeast 539 620 39,000  Level FlightAware ADS-B
Sun 04:59:32 AM 30.3760 -89.1310 51° Northeast 539 620 39,000  Level FlightAware ADS-B
Sun 05:00:12 AM 30.4290 -89.0550 51° Northeast 539 620 39,000  Level FlightAware ADS-B
Sun 05:00:52 AM 30.4830 -88.9780 51° Northeast 539 620 39,000  Level FlightAware ADS-B
Sun 05:01:42 AM 30.5490 -88.8830 51° Northeast 539 620 39,000  Level FlightAware ADS-B
Sun 05:02:22 AM 30.6030 -88.8060 51° Northeast 539 620 39,000  Level FlightAware ADS-B
Sun 05:03:02 AM 30.6560 -88.7300 51° Northeast 539 620 39,000  Level FlightAware ADS-B
Sun 05:03:42 AM 30.7090 -88.6530 51° Northeast 539 620 39,000  Level FlightAware ADS-B
Sun 05:04:22 AM 30.7630 -88.5760 51° Northeast 539 620 39,000  Level FlightAware ADS-B
Sun 05:05:12 AM 30.8290 -88.4800 51° Northeast 539 620 39,000  Level FlightAware ADS-B
Sun 05:05:52 AM 30.8830 -88.4040 50° Northeast 539 620 39,000  Level FlightAware ADS-B
Sun 05:06:32 AM 30.9360 -88.3270 51° Northeast 539 620 39,000  Level FlightAware ADS-B
Sun 05:07:12 AM 30.9890 -88.2500 51° Northeast 539 620 39,000  Level FlightAware ADS-B
Sun 05:07:34 AM 31.1342 -88.0025 51° Northeast 546 628 39,000  Level Atlanta Center
Sun 05:08:08 AM 31.1906 -87.9256 49° Northeast 537 618 39,000  Level Houston Center
Sun 05:09:08 AM 31.2806 -87.8017 50° Northeast 537 618 39,000  Level Houston Center
Sun 05:10:08 AM 31.3747 -87.6672 51° Northeast 537 618 39,000  Level Houston Center
Sun 05:10:34 AM 31.4239 -87.6061 47° Northeast 536 617 39,000  Level Atlanta Center
Sun 05:11:34 AM 31.5175 -87.4711 51° Northeast 536 617 39,000  Level Atlanta Center
Sun 05:12:34 AM 31.6131 -87.3356 50° Northeast 536 617 39,000  Level Atlanta Center
Sun 05:13:34 AM 31.7169 -87.1856 51° Northeast 536 617 39,000  Level Atlanta Center
Sun 05:14:34 AM 31.8122 -87.0472 51° Northeast 536 617 39,000  Level Atlanta Center
Sun 05:15:34 AM 31.9094 -86.9086 50° Northeast 536 617 39,000 -400 Level Atlanta Center
Sun 05:16:34 AM 32.0067 -86.7672 51° Northeast 541 623 38,200 -950 Descending Atlanta Center
Sun 05:17:34 AM 32.1097 -86.6281 49° Northeast 548 631 37,100 -1,450 Descending Atlanta Center
Sun 05:18:34 AM 32.1958 -86.5056 50° Northeast 548 631 35,300 -2,150 Descending Atlanta Center
Sun 05:19:34 AM 32.2842 -86.3606 54° Northeast 540 621 32,800 -2,400 Descending Atlanta Center
Sun 05:20:34 AM 32.3828 -86.2231 50° Northeast 540 621 30,500 -2,200 Descending Atlanta Center
Sun 05:21:34 AM 32.4706 -86.0897 52° Northeast 534 615 28,400 -1,850 Descending Atlanta Center
Sun 05:22:34 AM 32.5731 -85.9417 51° Northeast 527 606 26,800 -1,300 Descending Atlanta Center
Sun 05:23:34 AM 32.6586 -85.8103 52° Northeast 519 597 25,800 -1,467 Descending Atlanta Center
Sun 05:25:34 AM 32.8289 -85.5617 51° Northeast 485 558 22,400 -1,733 Descending Atlanta Center
Sun 05:26:34 AM 32.9075 -85.4417 52° Northeast 471 542 20,600 -1,750 Descending Atlanta Center
Sun 05:27:34 AM 32.9861 -85.3292 50° Northeast 450 518 18,900 -1,750 Descending Atlanta Center
Sun 05:28:34 AM 33.0581 -85.2211 52° Northeast 439 505 17,100 -1,700 Descending Atlanta Center
Sun 05:29:34 AM 33.1300 -85.1153 51° Northeast 415 478 15,500 -1,550 Descending Atlanta Center
Sun 05:30:34 AM 33.1997 -85.0094 52° Northeast 409 471 14,000 -849 Descending Atlanta Center
Sun 05:36:17 AM 33.5460 -84.5020 52° Northeast 282 325 9,800 -820 Descending FlightAware ADS-B
Sun 05:36:47 AM 33.5460 -84.4480 90° East 285 328 8,900 -1,600 Descending FlightAware ADS-B
Sun 05:37:17 AM 33.5450 -84.4000 91° East 284 327 8,200 -1,418 Descending FlightAware ADS-B
Sun 05:37:42 AM 33.5450 -84.3630 90° East 284 327 7,600 -720 Descending FlightAware ADS-B
Sun 05:38:07 AM 33.5450 -84.3250 90° East 284 327 7,600 -1,565 Level FlightAware ADS-B
Sun 05:38:28 AM 33.5500 -84.2833 90° East 284 327 6,400 -1,724 Descending Atlanta TRACON
Sun 05:39:34 AM 33.5500 -84.1833 90° East 278 320 5,100 -1,000 Descending Atlanta TRACON
Sun 05:40:34 AM 33.6000 -84.1500 29° Northeast 261 300 4,300 -1,000 Descending Atlanta TRACON
Sun 05:41:34 AM 33.6333 -84.2167 301° West 242 278 3,100 -667 Descending Atlanta TRACON
Sun 05:42:40 AM 33.6333 -84.3000 270° West 214 246 2,900 -571 Descending Atlanta TRACON
Sun 05:43:40 AM 33.6333 -84.3667 270° West 177 204 1,900 -1,000 Descending Atlanta TRACON
Sun 05:45:00 AM 33.6333 -84.4167 301° West  Level FlightAware Approximate
Sun 05:52:00 AM 33.6367 -84.4279 301° West  Level Estimated
Sun 05:53:00 AM 33.6367 -84.4279 301° West  Level Estimated

Login

Don't have an account? Register now (free) for customized features, flight alerts, and more!